createdAt,value
2023-07-24T00:00:41.608Z,0
2023-07-24T00:02:02.700Z,0
2023-07-24T00:03:23.818Z,0
2023-07-24T00:04:44.937Z,0
2023-07-24T00:20:05.891Z,0
2023-07-24T00:35:26.824Z,0
2023-07-24T00:50:46.828Z,0
2023-07-24T01:06:07.766Z,0
2023-07-24T01:21:28.743Z,0
2023-07-24T01:36:49.709Z,0
2023-07-24T01:52:10.674Z,0
2023-07-24T02:07:31.625Z,0
2023-07-24T02:22:52.588Z,0
2023-07-24T02:38:13.543Z,0
2023-07-24T02:53:34.471Z,3
2023-07-24T03:08:55.394Z,21
2023-07-24T03:24:16.301Z,87
2023-07-24T03:39:37.000Z,286
2023-07-24T03:54:58.151Z,747
2023-07-24T04:10:18.085Z,1939
2023-07-24T04:25:38.991Z,1833
2023-07-24T04:40:59.922Z,7476
2023-07-24T04:56:20.855Z,8935
2023-07-24T05:11:41.796Z,14072
2023-07-24T05:27:02.713Z,10113
2023-07-24T05:42:23.653Z,20769
2023-07-24T05:57:44.593Z,25768
2023-07-24T06:13:05.516Z,30530
2023-07-24T06:14:26.611Z,74868
2023-07-24T06:15:47.686Z,30600
2023-07-24T06:17:08.778Z,31837
2023-07-24T06:18:29.846Z,31756
2023-07-24T06:19:49.933Z,33988
2023-07-24T06:21:11.015Z,74943
2023-07-24T06:22:32.102Z,76961
2023-07-24T06:23:53.165Z,77394
2023-07-24T06:25:14.257Z,74791
2023-07-24T06:26:35.321Z,75666
2023-07-24T06:27:56.396Z,77559
2023-07-24T06:29:17.483Z,77158
2023-07-24T06:30:38.553Z,32624
2023-07-24T06:31:59.650Z,13653
2023-07-24T06:33:20.719Z,74424
2023-07-24T06:34:41.796Z,30173
2023-07-24T06:36:02.860Z,35116
2023-07-24T06:37:23.939Z,33127
2023-07-24T06:38:44.040Z,75594
2023-07-24T06:40:05.117Z,76218
2023-07-24T06:41:26.196Z,76766
2023-07-24T06:42:47.280Z,74406
2023-07-24T06:44:08.348Z,30165
2023-07-24T06:45:29.417Z,74620
2023-07-24T06:46:50.508Z,74871
2023-07-24T06:48:11.577Z,73626
2023-07-24T06:49:32.661Z,74373
2023-07-24T06:50:53.736Z,26609
2023-07-24T06:52:14.813Z,25347
2023-07-24T06:53:35.902Z,25580
2023-07-24T06:54:56.962Z,25596
2023-07-24T06:56:17.060Z,25177
2023-07-24T06:57:38.153Z,30401
2023-07-24T06:58:59.216Z,25247
2023-07-24T07:00:20.286Z,24899
2023-07-24T07:01:41.362Z,21204
2023-07-24T07:03:02.450Z,21908
2023-07-24T07:04:23.521Z,22478
2023-07-24T07:05:44.606Z,24253
2023-07-24T07:07:05.687Z,25759
2023-07-24T07:08:26.753Z,28435
2023-07-24T07:09:47.852Z,25245
2023-07-24T07:11:08.925Z,29888
2023-07-24T07:12:29.992Z,31903
2023-07-24T07:13:51.202Z,74195
2023-07-24T07:15:12.286Z,31650
2023-07-24T07:16:33.000Z,26774
2023-07-24T07:17:54.451Z,24752
2023-07-24T07:19:15.515Z,27152
2023-07-24T07:20:36.594Z,9672
2023-07-24T07:23:18.755Z,5372
2023-07-24T07:24:39.844Z,5180
2023-07-24T07:26:00.902Z,5240
2023-07-24T07:27:21.986Z,5951
2023-07-24T07:28:43.060Z,13535
2023-07-24T07:30:04.141Z,16557
2023-07-24T07:31:24.227Z,20129
2023-07-24T07:32:45.317Z,20327
2023-07-24T07:34:06.399Z,21134
2023-07-24T07:35:27.461Z,23607
2023-07-24T07:36:48.549Z,24724
2023-07-24T07:39:30.692Z,24394
2023-07-24T07:40:51.785Z,25984
2023-07-24T07:42:12.846Z,23852
2023-07-24T07:43:33.923Z,27292
2023-07-24T07:44:55.004Z,26414
2023-07-24T07:46:16.080Z,29567
2023-07-24T07:47:37.172Z,31310
2023-07-24T07:48:58.368Z,32387
2023-07-24T07:50:19.433Z,30239
2023-07-24T07:51:40.509Z,30030
2023-07-24T07:53:01.614Z,28087
2023-07-24T07:54:22.682Z,28341
2023-07-24T07:55:43.759Z,20231
2023-07-24T07:57:04.848Z,21023
2023-07-24T07:58:25.912Z,14569
2023-07-24T07:59:46.984Z,18658
2023-07-24T08:01:08.077Z,18437
2023-07-24T08:02:29.141Z,17755
2023-07-24T08:03:50.244Z,16645
2023-07-24T08:05:11.318Z,16831
2023-07-24T08:06:31.412Z,13067
2023-07-24T08:07:52.476Z,8750
2023-07-24T08:09:13.549Z,8550
2023-07-24T08:10:34.636Z,8173
2023-07-24T08:11:55.711Z,11736
2023-07-24T08:13:16.804Z,12906
2023-07-24T08:14:37.865Z,9554
2023-07-24T08:15:58.961Z,10125
2023-07-24T08:17:20.041Z,3072
2023-07-24T08:18:41.107Z,14418
2023-07-24T08:20:02.198Z,15897
2023-07-24T08:21:23.254Z,15059
2023-07-24T08:22:44.343Z,13317
2023-07-24T08:24:04.423Z,15553
2023-07-24T08:25:25.506Z,15853
2023-07-24T08:26:46.584Z,15608
2023-07-24T08:28:07.655Z,15001
2023-07-24T08:29:28.726Z,14206
2023-07-24T08:30:49.815Z,13610
2023-07-24T08:32:10.900Z,14168
2023-07-24T08:33:31.989Z,16762
2023-07-24T08:34:53.044Z,16030
2023-07-24T08:36:14.124Z,3072
2023-07-24T08:37:35.215Z,14512
2023-07-24T08:38:56.280Z,14470
2023-07-24T08:40:17.359Z,16294
2023-07-24T08:41:37.445Z,15178
2023-07-24T08:42:58.540Z,15411
2023-07-24T08:44:19.604Z,14477
2023-07-24T08:45:40.682Z,13840
2023-07-24T08:47:01.752Z,14111
2023-07-24T08:48:22.831Z,14637
2023-07-24T08:49:43.909Z,11416
2023-07-24T08:51:04.989Z,11443
2023-07-24T08:52:26.064Z,12539
2023-07-24T08:53:47.144Z,3072
2023-07-24T08:55:08.223Z,12607
2023-07-24T08:56:29.305Z,16228
2023-07-24T08:57:50.389Z,16969
2023-07-24T08:59:10.456Z,20638
2023-07-24T09:00:31.540Z,17113
2023-07-24T09:01:52.626Z,19292
2023-07-24T09:03:13.701Z,18998
2023-07-24T09:04:34.791Z,13187
2023-07-24T09:05:55.853Z,10378
2023-07-24T09:07:16.944Z,9878
2023-07-24T09:08:38.014Z,9520
2023-07-24T09:09:59.077Z,3072
2023-07-24T09:11:20.179Z,9525
2023-07-24T09:12:41.256Z,9326
2023-07-24T09:14:02.327Z,9221
2023-07-24T09:15:23.404Z,8638
2023-07-24T09:16:43.511Z,9249
2023-07-24T09:18:04.581Z,8458
2023-07-24T09:19:25.644Z,7792
2023-07-24T09:20:46.722Z,7350
2023-07-24T09:22:07.806Z,7350
2023-07-24T09:23:27.916Z,7911
2023-07-24T09:24:48.984Z,7896
2023-07-24T09:26:10.074Z,8061
2023-07-24T09:27:31.138Z,8194
2023-07-24T09:28:52.213Z,7967
2023-07-24T09:30:13.297Z,7680
2023-07-24T09:32:55.465Z,6690
2023-07-24T09:34:16.543Z,6121
2023-07-24T09:35:37.610Z,5896
2023-07-24T09:36:58.689Z,5736
2023-07-24T09:38:19.764Z,5675
2023-07-24T09:39:40.843Z,6084
2023-07-24T09:41:00.940Z,3072
2023-07-24T09:42:22.027Z,6167
2023-07-24T09:43:43.073Z,6026
2023-07-24T09:45:04.161Z,6806
2023-07-24T09:46:25.255Z,7440
2023-07-24T09:47:46.338Z,7782
2023-07-24T09:49:07.405Z,7560
2023-07-24T09:50:28.492Z,7402
2023-07-24T09:51:49.560Z,7259
2023-07-24T09:53:10.646Z,6906
2023-07-24T09:54:31.725Z,3072
2023-07-24T09:55:52.790Z,6499
2023-07-24T09:57:13.866Z,5609
2023-07-24T09:58:33.979Z,4630
2023-07-24T09:59:55.053Z,3584
2023-07-24T10:01:16.120Z,2753
2023-07-24T10:02:37.000Z,2263
2023-07-24T10:05:19.366Z,2114
2023-07-24T10:06:40.447Z,2099
2023-07-24T10:08:01.536Z,3072
2023-07-24T10:09:22.596Z,3266
2023-07-24T10:10:43.688Z,4186
2023-07-24T10:12:04.773Z,3828
2023-07-24T10:13:25.837Z,3072
2023-07-24T10:14:46.923Z,3209
2023-07-24T10:16:07.017Z,3123
2023-07-24T10:17:28.079Z,3169
2023-07-24T10:18:49.185Z,4049
2023-07-24T10:20:10.254Z,6110
2023-07-24T10:21:31.331Z,6989
2023-07-24T10:22:52.388Z,7219
2023-07-24T10:24:13.465Z,7310
2023-07-24T10:25:34.564Z,7482
2023-07-24T10:26:55.636Z,7533
2023-07-24T10:28:16.733Z,7452
2023-07-24T10:29:37.819Z,7277
2023-07-24T10:30:58.892Z,7058
2023-07-24T10:32:19.969Z,7069
2023-07-24T10:33:40.052Z,6628
2023-07-24T10:35:01.152Z,6975
2023-07-24T10:36:22.227Z,6367
2023-07-24T10:37:43.279Z,5979
2023-07-24T10:39:04.381Z,5738
2023-07-24T10:40:25.437Z,6266
2023-07-24T10:41:46.514Z,6433
2023-07-24T10:43:07.615Z,6762
2023-07-24T10:44:28.685Z,6463
2023-07-24T10:45:49.774Z,6356
2023-07-24T10:47:10.000Z,6409
2023-07-24T10:48:31.918Z,6462
2023-07-24T10:49:53.011Z,6808
2023-07-24T10:51:13.098Z,6744
2023-07-24T10:52:34.179Z,3072
2023-07-24T10:53:55.262Z,6136
2023-07-24T10:55:16.340Z,6127
2023-07-24T10:56:37.410Z,5981
2023-07-24T10:57:58.486Z,5824
2023-07-24T10:59:19.572Z,3072
2023-07-24T11:00:40.636Z,5693
2023-07-24T11:02:01.705Z,5543
2023-07-24T11:03:22.773Z,5610
2023-07-24T11:04:43.857Z,5988
2023-07-24T11:06:04.925Z,6108
2023-07-24T11:07:26.035Z,6370
2023-07-24T11:08:46.127Z,6759
2023-07-24T11:10:07.205Z,6817
2023-07-24T11:11:28.267Z,6728
2023-07-24T11:12:49.359Z,6595
2023-07-24T11:14:10.446Z,6561
2023-07-24T11:15:31.519Z,6571
2023-07-24T11:18:13.656Z,6368
2023-07-24T11:19:34.753Z,6346
2023-07-24T11:20:55.839Z,6419
2023-07-24T11:22:16.915Z,6274
2023-07-24T11:23:37.996Z,6298
2023-07-24T11:24:59.000Z,6340
2023-07-24T11:26:19.152Z,6310
2023-07-24T11:27:40.231Z,6190
2023-07-24T11:29:01.313Z,5996
2023-07-24T11:30:22.407Z,5820
2023-07-24T11:31:43.482Z,6038
2023-07-24T11:33:04.540Z,6213
2023-07-24T11:34:25.636Z,6244
2023-07-24T11:35:46.728Z,6099
2023-07-24T11:37:07.777Z,5908
2023-07-24T11:38:28.869Z,5389
2023-07-24T11:39:49.945Z,5786
2023-07-24T11:41:11.030Z,5793
2023-07-24T11:42:32.105Z,5748
2023-07-24T11:43:52.182Z,5664
2023-07-24T11:45:13.272Z,5554
2023-07-24T11:46:34.359Z,3072
2023-07-24T11:47:55.438Z,5294
2023-07-24T11:49:16.527Z,5144
2023-07-24T11:50:37.601Z,5111
2023-07-24T11:51:58.686Z,4992
2023-07-24T11:53:19.750Z,5048
2023-07-24T11:54:40.832Z,4900
2023-07-24T11:56:01.909Z,4674
2023-07-24T11:57:22.966Z,4583
2023-07-24T11:58:44.073Z,4373
2023-07-24T12:00:05.147Z,4294
2023-07-24T12:01:25.224Z,3072
2023-07-24T12:02:46.312Z,4197
2023-07-24T12:04:07.404Z,4228
2023-07-24T12:05:28.472Z,4302
2023-07-24T12:06:49.558Z,4418
2023-07-24T12:08:10.633Z,3072
2023-07-24T12:09:31.681Z,4609
2023-07-24T12:10:52.775Z,4870
2023-07-24T12:12:13.830Z,5036
2023-07-24T12:13:34.932Z,5228
2023-07-24T12:14:56.010Z,5428
2023-07-24T12:16:17.081Z,5645
2023-07-24T12:17:38.158Z,5915
2023-07-24T12:18:58.255Z,6094
2023-07-24T12:20:19.325Z,6040
2023-07-24T12:21:40.419Z,5959
2023-07-24T12:23:01.497Z,5975
2023-07-24T12:24:22.556Z,6153
2023-07-24T12:25:43.640Z,6247
2023-07-24T12:27:04.731Z,6397
2023-07-24T12:28:25.797Z,6344
2023-07-24T12:29:46.871Z,6335
2023-07-24T12:31:07.962Z,6239
2023-07-24T12:32:29.036Z,6052
2023-07-24T12:33:50.119Z,5416
2023-07-24T12:35:11.162Z,5314
2023-07-24T12:36:31.265Z,5505
2023-07-24T12:37:52.355Z,5090
2023-07-24T12:39:13.416Z,4732
2023-07-24T12:40:34.518Z,4446
2023-07-24T12:41:55.593Z,4332
2023-07-24T12:43:16.641Z,4656
2023-07-24T12:44:37.750Z,4878
2023-07-24T12:45:58.839Z,4554
2023-07-24T12:47:19.905Z,4206
2023-07-24T12:48:40.997Z,4469
2023-07-24T12:50:02.043Z,4800
2023-07-24T12:51:23.142Z,4103
2023-07-24T12:52:44.215Z,3650
2023-07-24T12:54:04.288Z,3277
2023-07-24T12:55:25.383Z,3147
2023-07-24T12:56:46.437Z,3825
2023-07-24T12:58:07.513Z,4723
2023-07-24T12:59:28.618Z,5055
2023-07-24T13:00:49.690Z,4983
2023-07-24T13:02:10.000Z,4777
2023-07-24T13:03:31.858Z,4595
2023-07-24T13:04:52.914Z,4497
2023-07-24T13:06:13.987Z,4401
2023-07-24T13:07:35.058Z,4336
2023-07-24T13:08:56.168Z,4288
2023-07-24T13:10:17.252Z,4171
2023-07-24T13:11:37.329Z,4134
2023-07-24T13:12:58.419Z,3935
2023-07-24T13:14:19.502Z,4096
2023-07-24T13:15:40.564Z,4231
2023-07-24T13:17:01.658Z,4297
2023-07-24T13:18:22.729Z,4241
2023-07-24T13:19:43.796Z,4133
2023-07-24T13:21:04.852Z,4121
2023-07-24T13:22:25.926Z,4118
2023-07-24T13:23:47.019Z,4069
2023-07-24T13:25:08.122Z,3072
2023-07-24T13:26:29.180Z,3786
2023-07-24T13:27:50.245Z,3705
2023-07-24T13:29:10.373Z,3693
2023-07-24T13:30:31.444Z,3825
2023-07-24T13:31:52.522Z,3072
2023-07-24T13:33:13.563Z,3940
2023-07-24T13:34:34.681Z,4143
2023-07-24T13:35:55.763Z,4228
2023-07-24T13:37:16.824Z,4327
2023-07-24T13:38:37.914Z,4411
2023-07-24T13:39:58.979Z,4521
2023-07-24T13:41:20.043Z,4577
2023-07-24T13:42:41.153Z,4586
2023-07-24T13:44:02.217Z,4616
2023-07-24T13:45:23.311Z,4581
2023-07-24T13:46:43.388Z,4655
2023-07-24T13:48:04.483Z,4739
2023-07-24T13:49:25.529Z,4902
2023-07-24T13:50:46.624Z,4923
2023-07-24T13:52:07.705Z,3072
2023-07-24T13:53:28.780Z,4982
2023-07-24T13:54:48.894Z,4903
2023-07-24T13:56:09.954Z,4777
2023-07-24T13:57:31.035Z,3072
2023-07-24T13:58:52.126Z,4650
2023-07-24T14:00:13.161Z,4694
2023-07-24T14:01:34.278Z,4662
2023-07-24T14:02:55.351Z,3072
2023-07-24T14:04:16.423Z,4529
2023-07-24T14:05:37.500Z,4438
2023-07-24T14:06:58.586Z,4339
2023-07-24T14:08:19.626Z,4336
2023-07-24T14:09:40.725Z,4453
2023-07-24T14:11:01.806Z,4472
2023-07-24T14:12:21.901Z,4551
2023-07-24T14:13:42.984Z,4618
2023-07-24T14:15:04.068Z,4617
2023-07-24T14:17:46.215Z,4613
2023-07-24T14:19:07.303Z,4586
2023-07-24T14:20:28.377Z,4471
2023-07-24T14:21:49.422Z,4389
2023-07-24T14:23:10.528Z,4252
2023-07-24T14:24:31.607Z,4158
2023-07-24T14:25:52.662Z,4109
2023-07-24T14:27:13.731Z,4075
2023-07-24T14:28:34.815Z,4036
2023-07-24T14:29:54.925Z,4029
2023-07-24T14:31:16.004Z,4083
2023-07-24T14:32:37.089Z,4071
2023-07-24T14:33:58.168Z,4067
2023-07-24T14:35:19.239Z,4032
2023-07-24T14:36:40.327Z,4038
2023-07-24T14:38:01.396Z,4107
2023-07-24T14:39:22.454Z,4227
2023-07-24T14:40:43.545Z,4254
2023-07-24T14:42:04.616Z,4307
2023-07-24T14:43:25.708Z,4259
2023-07-24T14:44:46.777Z,3072
2023-07-24T14:46:07.864Z,4287
2023-07-24T14:47:27.950Z,4268
2023-07-24T14:48:49.022Z,4232
2023-07-24T14:50:10.117Z,4374
2023-07-24T14:51:31.183Z,4340
2023-07-24T14:52:52.262Z,4314
2023-07-24T14:54:13.330Z,4332
2023-07-24T14:55:34.420Z,4414
2023-07-24T14:56:55.488Z,4445
2023-07-24T14:58:16.547Z,4290
2023-07-24T14:59:37.656Z,4113
2023-07-24T15:00:58.733Z,4066
2023-07-24T15:02:19.799Z,4000
2023-07-24T15:03:40.874Z,3836
2023-07-24T15:05:00.950Z,3890
2023-07-24T15:06:22.022Z,3843
2023-07-24T15:07:43.094Z,3789
2023-07-24T15:09:04.185Z,3825
2023-07-24T15:10:25.289Z,3780
2023-07-24T15:11:46.329Z,3713
2023-07-24T15:13:07.447Z,3072
2023-07-24T15:14:28.522Z,3752
2023-07-24T15:15:49.607Z,3867
2023-07-24T15:17:10.688Z,3920
2023-07-24T15:18:31.759Z,4018
2023-07-24T15:19:52.810Z,4007
2023-07-24T15:21:13.878Z,3914
2023-07-24T15:22:33.998Z,3746
2023-07-24T15:23:55.056Z,3627
2023-07-24T15:25:16.163Z,3560
2023-07-24T15:26:37.244Z,3513
2023-07-24T15:27:58.319Z,3434
2023-07-24T15:29:19.403Z,3375
2023-07-24T15:30:40.474Z,3232
2023-07-24T15:32:01.548Z,3138
2023-07-24T15:33:22.625Z,3106
2023-07-24T15:34:43.713Z,2988
2023-07-24T15:36:04.000Z,2936
2023-07-24T15:37:25.837Z,3072
2023-07-24T15:38:46.947Z,2929
2023-07-24T15:40:07.038Z,2961
2023-07-24T15:41:28.074Z,3056
2023-07-24T15:42:49.185Z,3074
2023-07-24T15:44:10.264Z,3144
2023-07-24T15:45:31.345Z,2845
2023-07-24T15:46:52.415Z,2700
2023-07-24T15:48:13.465Z,2577
2023-07-24T15:49:34.595Z,2511
2023-07-24T15:50:55.662Z,2535
2023-07-24T15:52:16.719Z,2551
2023-07-24T15:53:37.823Z,3072
2023-07-24T15:54:58.890Z,2516
2023-07-24T15:56:19.945Z,3072
2023-07-24T15:57:40.078Z,2483
2023-07-24T15:59:01.117Z,2490
2023-07-24T16:00:22.215Z,2377
2023-07-24T16:03:04.341Z,2193
2023-07-24T16:04:25.444Z,2142
2023-07-24T16:05:46.551Z,2035
2023-07-24T16:07:07.609Z,2125
2023-07-24T16:08:28.712Z,2198
2023-07-24T16:09:49.777Z,2200
2023-07-24T16:11:10.824Z,2320
2023-07-24T16:12:31.931Z,2197
2023-07-24T16:13:53.014Z,2485
2023-07-24T16:15:13.070Z,2659
2023-07-24T16:16:34.181Z,2551
2023-07-24T16:17:55.267Z,2376
2023-07-24T16:19:16.340Z,3072
2023-07-24T16:20:37.413Z,2035
2023-07-24T16:21:58.471Z,1908
2023-07-24T16:23:19.563Z,1838
2023-07-24T16:24:40.653Z,1856
2023-07-24T16:26:01.682Z,1870
2023-07-24T16:27:22.811Z,1950
2023-07-24T16:28:43.839Z,2095
2023-07-24T16:30:04.963Z,2094
2023-07-24T16:31:26.027Z,2071
2023-07-24T16:32:46.090Z,2066
2023-07-24T16:35:28.278Z,1964
2023-07-24T16:36:49.340Z,1923
2023-07-24T16:38:10.372Z,1964
2023-07-24T16:39:31.454Z,3072
2023-07-24T16:40:52.566Z,1825
2023-07-24T16:42:13.630Z,1794
2023-07-24T16:43:34.661Z,1800
2023-07-24T16:44:55.789Z,1780
2023-07-24T16:46:16.870Z,1694
2023-07-24T16:47:37.895Z,3072
2023-07-24T16:50:20.088Z,1661
2023-07-24T16:51:40.120Z,1706
2023-07-24T16:53:01.235Z,1696
2023-07-24T16:54:22.308Z,1692
2023-07-24T16:55:43.394Z,1637
2023-07-24T16:57:04.480Z,1567
2023-07-24T16:58:25.544Z,1479
2023-07-24T16:59:46.616Z,1401
2023-07-24T17:01:07.704Z,1299
2023-07-24T17:02:28.781Z,1212
2023-07-24T17:03:49.820Z,1165
2023-07-24T17:05:10.915Z,1158
2023-07-24T17:06:31.963Z,1164
2023-07-24T17:07:53.058Z,1145
2023-07-24T17:09:13.151Z,1135
2023-07-24T17:10:34.196Z,1151
2023-07-24T17:11:55.299Z,1172
2023-07-24T17:13:16.366Z,1173
2023-07-24T17:14:37.433Z,1166
2023-07-24T17:15:58.469Z,1152
2023-07-24T17:17:19.567Z,1113
2023-07-24T17:18:40.627Z,1014
2023-07-24T17:20:01.662Z,899
2023-07-24T17:21:22.772Z,794
2023-07-24T17:22:43.811Z,694
2023-07-24T17:24:04.886Z,628
2023-07-24T17:25:26.005Z,590
2023-07-24T17:26:46.076Z,543
2023-07-24T17:28:07.151Z,515
2023-07-24T17:29:28.171Z,3072
2023-07-24T17:30:49.286Z,455
2023-07-24T17:32:10.340Z,421
2023-07-24T17:33:31.413Z,379
2023-07-24T17:34:52.462Z,321
2023-07-24T17:36:13.493Z,244
2023-07-24T17:37:34.610Z,185
2023-07-24T17:38:55.635Z,119
2023-07-24T17:40:16.744Z,67
2023-07-24T17:41:37.815Z,47
2023-07-24T17:42:58.835Z,35
2023-07-24T17:44:18.964Z,21
2023-07-24T17:45:40.025Z,20
2023-07-24T17:47:01.090Z,16
2023-07-24T17:48:22.156Z,13
2023-07-24T17:49:43.218Z,23
2023-07-24T17:51:04.253Z,29
2023-07-24T17:52:25.356Z,26
2023-07-24T17:53:46.430Z,27
2023-07-24T17:55:07.451Z,29
2023-07-24T17:56:28.561Z,32
2023-07-24T17:57:49.622Z,32
2023-07-24T17:59:10.683Z,31
2023-07-24T18:00:31.754Z,30
2023-07-24T18:01:51.839Z,28
2023-07-24T18:03:12.906Z,31
2023-07-24T18:04:33.000Z,35
2023-07-24T18:05:55.053Z,31
2023-07-24T18:07:16.109Z,39
2023-07-24T18:08:37.185Z,35
2023-07-24T18:09:58.248Z,37
2023-07-24T18:11:19.261Z,40
2023-07-24T18:12:40.375Z,50
2023-07-24T18:14:01.434Z,56
2023-07-24T18:15:22.507Z,75
2023-07-24T18:16:43.542Z,94
2023-07-24T18:18:04.610Z,131
2023-07-24T18:19:25.794Z,163
2023-07-24T18:20:46.872Z,189
2023-07-24T18:22:07.919Z,173
2023-07-24T18:23:29.009Z,136
2023-07-24T18:24:50.057Z,3072
2023-07-24T18:26:10.163Z,143
2023-07-24T18:27:31.223Z,3072
2023-07-24T18:28:52.302Z,157
2023-07-24T18:30:13.366Z,128
2023-07-24T18:31:34.430Z,121
2023-07-24T18:32:55.476Z,100
2023-07-24T18:34:16.568Z,75
2023-07-24T18:35:37.633Z,46
2023-07-24T18:38:19.756Z,45
2023-07-24T18:39:40.841Z,39
2023-07-24T18:41:01.905Z,44
2023-07-24T18:43:44.016Z,46
2023-07-24T18:45:04.123Z,30
2023-07-24T18:46:25.164Z,14
2023-07-24T18:47:46.258Z,14
2023-07-24T18:49:07.313Z,11
2023-07-24T18:51:49.453Z,12
2023-07-24T18:54:30.604Z,12
2023-07-24T18:55:50.698Z,10
2023-07-24T18:57:10.788Z,10
2023-07-24T18:58:31.854Z,9
2023-07-24T18:59:52.905Z,7
2023-07-24T19:01:13.972Z,6
2023-07-24T19:02:35.055Z,11
2023-07-24T19:03:56.112Z,10
2023-07-24T19:05:17.173Z,11
2023-07-24T19:06:38.247Z,9
2023-07-24T19:07:59.296Z,9
2023-07-24T19:09:19.405Z,11
2023-07-24T19:10:39.490Z,11
2023-07-24T19:12:00.561Z,6
2023-07-24T19:13:21.618Z,9
2023-07-24T19:14:42.694Z,11
2023-07-24T19:16:03.739Z,7
2023-07-24T19:17:24.825Z,9
2023-07-24T19:18:45.885Z,5
2023-07-24T19:20:06.957Z,6
2023-07-24T19:21:27.996Z,5
2023-07-24T19:22:49.086Z,3
2023-07-24T19:24:10.131Z,3
2023-07-24T19:25:31.208Z,3
2023-07-24T19:26:52.272Z,1
2023-07-24T19:28:12.355Z,1
2023-07-24T19:29:33.429Z,3
2023-07-24T19:30:54.489Z,4
2023-07-24T19:32:15.557Z,5
2023-07-24T19:34:57.739Z,0
2023-07-24T19:36:18.800Z,1
2023-07-24T19:37:39.894Z,0
2023-07-24T19:39:00.983Z,2
2023-07-24T19:40:22.067Z,0
2023-07-24T19:41:43.180Z,0
2023-07-24T19:43:04.294Z,0
2023-07-24T19:44:25.371Z,1
2023-07-24T19:45:45.437Z,1
2023-07-24T19:47:06.515Z,1
2023-07-24T19:48:27.584Z,1
2023-07-24T19:49:48.696Z,0
2023-07-24T19:51:09.803Z,0
2023-07-24T19:52:30.919Z,0
2023-07-24T19:53:52.006Z,0
2023-07-24T19:55:13.120Z,0
2023-07-24T19:56:34.238Z,0
2023-07-24T19:57:55.362Z,0
2023-07-24T19:59:16.470Z,0
2023-07-24T20:00:37.576Z,0
2023-07-24T20:01:58.686Z,0
2023-07-24T20:03:18.799Z,0
2023-07-24T20:04:39.911Z,0
2023-07-24T20:06:01.017Z,0
2023-07-24T20:07:22.143Z,0
2023-07-24T20:08:43.253Z,0
2023-07-24T20:10:04.353Z,0
2023-07-24T20:11:25.443Z,0
2023-07-24T20:12:46.568Z,0
2023-07-24T20:14:07.680Z,0
2023-07-24T20:15:28.768Z,0
2023-07-24T20:16:49.892Z,0
2023-07-24T20:18:11.013Z,0
2023-07-24T20:19:32.118Z,0
2023-07-24T20:20:52.220Z,0
2023-07-24T20:22:13.343Z,0
2023-07-24T20:23:34.456Z,0
2023-07-24T20:24:55.563Z,0
2023-07-24T20:26:16.671Z,0
2023-07-24T20:27:37.788Z,0
2023-07-24T20:28:58.904Z,0
2023-07-24T20:30:20.008Z,0
2023-07-24T20:31:41.105Z,0
2023-07-24T20:33:02.225Z,0
2023-07-24T20:34:23.332Z,0
2023-07-24T20:35:44.444Z,0
2023-07-24T20:37:05.531Z,0
2023-07-24T20:38:25.669Z,0
2023-07-24T20:39:46.780Z,0
2023-07-24T20:41:07.887Z,0
2023-07-24T20:42:29.000Z,0
2023-07-24T20:43:50.118Z,0
2023-07-24T20:45:11.204Z,0
2023-07-24T20:46:32.340Z,0
2023-07-24T20:47:53.416Z,0
2023-07-24T20:49:14.553Z,0
2023-07-24T20:50:35.662Z,0
2023-07-24T20:51:56.768Z,0
2023-07-24T20:53:17.865Z,0
2023-07-24T20:54:38.981Z,0
2023-07-24T20:55:59.106Z,0
2023-07-24T20:57:20.224Z,0
2023-07-24T20:58:41.315Z,0
2023-07-24T21:00:02.434Z,0
2023-07-24T21:01:23.522Z,0
2023-07-24T21:02:44.627Z,0
2023-07-24T21:04:05.751Z,0
2023-07-24T21:05:26.873Z,0
2023-07-24T21:06:47.978Z,0
2023-07-24T21:08:09.088Z,0
2023-07-24T21:09:30.198Z,0
2023-07-24T21:10:51.310Z,0
2023-07-24T21:12:12.387Z,0
2023-07-24T21:13:32.536Z,0
2023-07-24T21:14:53.629Z,0
2023-07-24T21:16:14.756Z,0
2023-07-24T21:17:35.868Z,0
2023-07-24T21:18:56.962Z,0
2023-07-24T21:20:18.076Z,0
2023-07-24T21:21:39.201Z,0
2023-07-24T21:23:00.301Z,0
2023-07-24T21:24:21.415Z,0
2023-07-24T21:25:42.521Z,0
2023-07-24T21:27:03.625Z,0
2023-07-24T21:28:24.724Z,0
2023-07-24T21:29:45.837Z,0
2023-07-24T21:45:05.818Z,0
2023-07-24T22:00:26.779Z,0
2023-07-24T22:15:47.744Z,0
2023-07-24T22:31:08.675Z,0
2023-07-24T22:46:29.676Z,0
2023-07-24T23:01:50.631Z,0
2023-07-24T23:17:11.593Z,0
2023-07-24T23:32:32.546Z,0
2023-07-24T23:47:53.520Z,0
